sensor_id;sensor_type;location;lat;lon;timestamp;temperature;humidity
56046;DHT22;41913;51.030;3.706;2023-06-05T00:02:01;22.90;75.80
56046;DHT22;41913;51.030;3.706;2023-06-05T00:04:26;22.90;75.80
56046;DHT22;41913;51.030;3.706;2023-06-05T00:06:53;22.80;76.20
56046;DHT22;41913;51.030;3.706;2023-06-05T00:09:19;22.90;75.80
56046;DHT22;41913;51.030;3.706;2023-06-05T00:11:46;22.80;75.70
56046;DHT22;41913;51.030;3.706;2023-06-05T00:14:12;22.90;75.70
56046;DHT22;41913;51.030;3.706;2023-06-05T00:16:38;22.80;75.70
56046;DHT22;41913;51.030;3.706;2023-06-05T00:19:04;22.80;75.70
56046;DHT22;41913;51.030;3.706;2023-06-05T00:21:30;22.80;75.70
56046;DHT22;41913;51.030;3.706;2023-06-05T00:23:57;22.80;75.70
56046;DHT22;41913;51.030;3.706;2023-06-05T00:26:22;22.80;75.70
56046;DHT22;41913;51.030;3.706;2023-06-05T00:28:48;22.80;75.70
56046;DHT22;41913;51.030;3.706;2023-06-05T00:31:14;22.80;75.70
56046;DHT22;41913;51.030;3.706;2023-06-05T00:33:40;22.80;75.70
56046;DHT22;41913;51.030;3.706;2023-06-05T00:36:07;22.80;75.70
56046;DHT22;41913;51.030;3.706;2023-06-05T00:38:34;22.80;75.70
56046;DHT22;41913;51.030;3.706;2023-06-05T00:41:01;22.80;75.60
56046;DHT22;41913;51.030;3.706;2023-06-05T00:43:28;22.80;75.70
56046;DHT22;41913;51.030;3.706;2023-06-05T00:45:59;22.80;75.80
56046;DHT22;41913;51.030;3.706;2023-06-05T00:48:29;22.80;75.60
56046;DHT22;41913;51.030;3.706;2023-06-05T00:50:57;22.80;75.60
56046;DHT22;41913;51.030;3.706;2023-06-05T00:53:24;22.80;75.60
56046;DHT22;41913;51.030;3.706;2023-06-05T00:55:51;22.70;75.60
56046;DHT22;41913;51.030;3.706;2023-06-05T00:58:17;22.80;75.60
56046;DHT22;41913;51.030;3.706;2023-06-05T01:00:43;22.80;75.60
56046;DHT22;41913;51.030;3.706;2023-06-05T01:03:11;22.80;75.60
56046;DHT22;41913;51.030;3.706;2023-06-05T01:05:38;22.70;75.50
56046;DHT22;41913;51.030;3.706;2023-06-05T01:08:04;22.70;75.50
56046;DHT22;41913;51.030;3.706;2023-06-05T01:10:31;22.70;75.50
56046;DHT22;41913;51.030;3.706;2023-06-05T01:15:29;22.70;75.50
56046;DHT22;41913;51.030;3.706;2023-06-05T01:17:59;22.70;75.40
56046;DHT22;41913;51.030;3.706;2023-06-05T01:20:34;22.70;75.40
56046;DHT22;41913;51.030;3.706;2023-06-05T01:23:05;22.70;75.50
56046;DHT22;41913;51.030;3.706;2023-06-05T01:25:31;22.70;75.50
56046;DHT22;41913;51.030;3.706;2023-06-05T01:28:03;22.70;75.50
56046;DHT22;41913;51.030;3.706;2023-06-05T01:30:33;22.70;75.50
56046;DHT22;41913;51.030;3.706;2023-06-05T01:33:26;22.70;75.40
56046;DHT22;41913;51.030;3.706;2023-06-05T01:35:55;22.70;75.50
56046;DHT22;41913;51.030;3.706;2023-06-05T01:38:23;22.60;75.40
56046;DHT22;41913;51.030;3.706;2023-06-05T01:40:51;22.70;75.50
56046;DHT22;41913;51.030;3.706;2023-06-05T01:43:17;22.60;75.40
56046;DHT22;41913;51.030;3.706;2023-06-05T01:45:44;22.70;75.50
56046;DHT22;41913;51.030;3.706;2023-06-05T01:48:10;22.70;75.40
56046;DHT22;41913;51.030;3.706;2023-06-05T01:50:39;22.60;75.40
56046;DHT22;41913;51.030;3.706;2023-06-05T01:53:08;22.70;75.40
56046;DHT22;41913;51.030;3.706;2023-06-05T01:55:35;22.60;75.40
56046;DHT22;41913;51.030;3.706;2023-06-05T01:58:04;22.60;75.50
56046;DHT22;41913;51.030;3.706;2023-06-05T02:00:31;22.60;75.40
56046;DHT22;41913;51.030;3.706;2023-06-05T02:02:57;22.60;75.40
56046;DHT22;41913;51.030;3.706;2023-06-05T02:05:22;22.60;75.40
56046;DHT22;41913;51.030;3.706;2023-06-05T02:07:49;22.60;75.40
56046;DHT22;41913;51.030;3.706;2023-06-05T02:10:19;22.60;75.30
56046;DHT22;41913;51.030;3.706;2023-06-05T02:12:45;22.60;75.40
56046;DHT22;41913;51.030;3.706;2023-06-05T02:15:11;22.60;75.30
56046;DHT22;41913;51.030;3.706;2023-06-05T02:17:42;22.60;75.40
56046;DHT22;41913;51.030;3.706;2023-06-05T02:20:13;22.60;75.30
56046;DHT22;41913;51.030;3.706;2023-06-05T02:22:41;22.60;75.30
56046;DHT22;41913;51.030;3.706;2023-06-05T02:25:07;22.60;75.40
56046;DHT22;41913;51.030;3.706;2023-06-05T02:27:34;22.60;75.30
56046;DHT22;41913;51.030;3.706;2023-06-05T02:30:01;22.60;75.40
56046;DHT22;41913;51.030;3.706;2023-06-05T02:32:27;22.60;75.30
56046;DHT22;41913;51.030;3.706;2023-06-05T02:34:54;22.60;75.40
56046;DHT22;41913;51.030;3.706;2023-06-05T02:37:27;22.60;75.90
56046;DHT22;41913;51.030;3.706;2023-06-05T02:39:54;22.50;75.20
56046;DHT22;41913;51.030;3.706;2023-06-05T02:42:19;22.50;75.20
56046;DHT22;41913;51.030;3.706;2023-06-05T02:44:46;22.50;75.30
56046;DHT22;41913;51.030;3.706;2023-06-05T02:47:12;22.60;75.80
56046;DHT22;41913;51.030;3.706;2023-06-05T02:49:38;22.50;75.30
56046;DHT22;41913;51.030;3.706;2023-06-05T02:52:04;22.50;75.80
56046;DHT22;41913;51.030;3.706;2023-06-05T02:54:30;22.50;75.20
56046;DHT22;41913;51.030;3.706;2023-06-05T02:56:55;22.50;75.20
56046;DHT22;41913;51.030;3.706;2023-06-05T02:59:26;22.50;75.20
56046;DHT22;41913;51.030;3.706;2023-06-05T03:01:53;22.50;75.30
56046;DHT22;41913;51.030;3.706;2023-06-05T03:04:19;22.50;75.20
56046;DHT22;41913;51.030;3.706;2023-06-05T03:06:48;22.50;75.20
56046;DHT22;41913;51.030;3.706;2023-06-05T03:09:13;22.50;75.20
56046;DHT22;41913;51.030;3.706;2023-06-05T03:11:40;22.50;75.20
56046;DHT22;41913;51.030;3.706;2023-06-05T03:14:05;22.50;75.20
56046;DHT22;41913;51.030;3.706;2023-06-05T03:16:31;22.50;75.20
56046;DHT22;41913;51.030;3.706;2023-06-05T03:19:03;22.50;75.20
56046;DHT22;41913;51.030;3.706;2023-06-05T03:21:34;22.50;75.20
56046;DHT22;41913;51.030;3.706;2023-06-05T03:24:01;22.50;75.20
56046;DHT22;41913;51.030;3.706;2023-06-05T03:26:27;22.50;75.20
56046;DHT22;41913;51.030;3.706;2023-06-05T03:28:54;22.50;75.20
56046;DHT22;41913;51.030;3.706;2023-06-05T03:31:21;22.50;75.20
56046;DHT22;41913;51.030;3.706;2023-06-05T03:33:47;22.50;75.20
56046;DHT22;41913;51.030;3.706;2023-06-05T03:36:13;22.50;75.70
56046;DHT22;41913;51.030;3.706;2023-06-05T03:38:43;22.50;75.20
56046;DHT22;41913;51.030;3.706;2023-06-05T03:41:09;22.40;75.20
56046;DHT22;41913;51.030;3.706;2023-06-05T03:43:35;22.40;75.10
56046;DHT22;41913;51.030;3.706;2023-06-05T03:46:02;22.50;75.20
56046;DHT22;41913;51.030;3.706;2023-06-05T03:48:27;22.40;75.10
56046;DHT22;41913;51.030;3.706;2023-06-05T03:50:53;22.40;75.10
56046;DHT22;41913;51.030;3.706;2023-06-05T03:53:22;22.40;75.10
56046;DHT22;41913;51.030;3.706;2023-06-05T03:55:48;22.40;75.70
56046;DHT22;41913;51.030;3.706;2023-06-05T03:58:18;22.40;75.10
56046;DHT22;41913;51.030;3.706;2023-06-05T04:00:45;22.40;75.10
56046;DHT22;41913;51.030;3.706;2023-06-05T04:03:12;22.40;75.10
56046;DHT22;41913;51.030;3.706;2023-06-05T04:05:42;22.40;75.30
56046;DHT22;41913;51.030;3.706;2023-06-05T04:08:09;22.40;75.40
56046;DHT22;41913;51.030;3.706;2023-06-05T04:10:35;22.40;75.40
56046;DHT22;41913;51.030;3.706;2023-06-05T04:13:01;22.40;75.50
56046;DHT22;41913;51.030;3.706;2023-06-05T04:15:28;22.40;75.40
56046;DHT22;41913;51.030;3.706;2023-06-05T04:17:54;22.40;75.20
56046;DHT22;41913;51.030;3.706;2023-06-05T04:20:20;22.40;75.10
56046;DHT22;41913;51.030;3.706;2023-06-05T04:22:46;22.40;75.10
56046;DHT22;41913;51.030;3.706;2023-06-05T04:25:12;22.40;75.10
56046;DHT22;41913;51.030;3.706;2023-06-05T04:27:39;22.40;75.10
56046;DHT22;41913;51.030;3.706;2023-06-05T04:30:07;22.40;75.10
56046;DHT22;41913;51.030;3.706;2023-06-05T04:32:33;22.40;75.10
56046;DHT22;41913;51.030;3.706;2023-06-05T04:35:05;22.40;75.60
56046;DHT22;41913;51.030;3.706;2023-06-05T04:37:33;22.40;75.10
56046;DHT22;41913;51.030;3.706;2023-06-05T04:39:59;22.40;75.10
56046;DHT22;41913;51.030;3.706;2023-06-05T04:42:25;22.30;75.00
56046;DHT22;41913;51.030;3.706;2023-06-05T04:44:59;22.30;75.00
56046;DHT22;41913;51.030;3.706;2023-06-05T04:47:27;22.30;75.00
56046;DHT22;41913;51.030;3.706;2023-06-05T04:49:53;22.40;75.10
56046;DHT22;41913;51.030;3.706;2023-06-05T04:52:20;22.30;75.00
56046;DHT22;41913;51.030;3.706;2023-06-05T04:54:47;22.30;74.90
56046;DHT22;41913;51.030;3.706;2023-06-05T04:57:14;22.30;75.00
56046;DHT22;41913;51.030;3.706;2023-06-05T04:59:45;22.30;74.90
56046;DHT22;41913;51.030;3.706;2023-06-05T05:02:11;22.30;74.90
56046;DHT22;41913;51.030;3.706;2023-06-05T05:04:37;22.30;74.90
56046;DHT22;41913;51.030;3.706;2023-06-05T05:07:03;22.30;74.90
56046;DHT22;41913;51.030;3.706;2023-06-05T05:09:32;22.30;74.90
56046;DHT22;41913;51.030;3.706;2023-06-05T05:11:58;22.30;74.90
56046;DHT22;41913;51.030;3.706;2023-06-05T05:14:25;22.30;74.90
56046;DHT22;41913;51.030;3.706;2023-06-05T05:16:54;22.30;74.90
56046;DHT22;41913;51.030;3.706;2023-06-05T05:19:20;22.30;74.90
56046;DHT22;41913;51.030;3.706;2023-06-05T05:21:48;22.30;75.00
56046;DHT22;41913;51.030;3.706;2023-06-05T05:24:14;22.30;75.00
56046;DHT22;41913;51.030;3.706;2023-06-05T05:26:40;22.20;74.90
56046;DHT22;41913;51.030;3.706;2023-06-05T05:29:08;22.30;75.00
56046;DHT22;41913;51.030;3.706;2023-06-05T05:31:34;22.30;75.10
56046;DHT22;41913;51.030;3.706;2023-06-05T05:34:01;22.30;75.10
56046;DHT22;41913;51.030;3.706;2023-06-05T05:36:27;22.40;75.10
56046;DHT22;41913;51.030;3.706;2023-06-05T05:38:53;22.40;75.10
56046;DHT22;41913;51.030;3.706;2023-06-05T05:41:20;22.40;75.10
56046;DHT22;41913;51.030;3.706;2023-06-05T05:43:49;22.40;75.70
56046;DHT22;41913;51.030;3.706;2023-06-05T05:46:14;22.40;75.10
56046;DHT22;41913;51.030;3.706;2023-06-05T05:48:40;22.50;75.10
56046;DHT22;41913;51.030;3.706;2023-06-05T05:51:06;22.50;75.10
56046;DHT22;41913;51.030;3.706;2023-06-05T05:53:33;22.50;75.00
56046;DHT22;41913;51.030;3.706;2023-06-05T05:56:00;22.50;75.00
56046;DHT22;41913;51.030;3.706;2023-06-05T05:58:26;22.60;74.90
56046;DHT22;41913;51.030;3.706;2023-06-05T06:00:51;22.50;75.00
56046;DHT22;41913;51.030;3.706;2023-06-05T06:03:18;22.50;75.10
56046;DHT22;41913;51.030;3.706;2023-06-05T06:05:45;22.50;75.70
56046;DHT22;41913;51.030;3.706;2023-06-05T06:08:11;22.50;75.30
56046;DHT22;41913;51.030;3.706;2023-06-05T06:10:37;22.50;75.40
56046;DHT22;41913;51.030;3.706;2023-06-05T06:13:04;22.50;75.50
56046;DHT22;41913;51.030;3.706;2023-06-05T06:15:30;22.50;75.60
56046;DHT22;41913;51.030;3.706;2023-06-05T06:17:56;22.40;75.60
56046;DHT22;41913;51.030;3.706;2023-06-05T06:20:23;22.40;75.90
56046;DHT22;41913;51.030;3.706;2023-06-05T06:22:49;22.40;75.90
56046;DHT22;41913;51.030;3.706;2023-06-05T06:25:15;22.40;75.70
56046;DHT22;41913;51.030;3.706;2023-06-05T06:27:42;22.40;75.60
56046;DHT22;41913;51.030;3.706;2023-06-05T06:30:09;22.40;75.50
56046;DHT22;41913;51.030;3.706;2023-06-05T06:32:35;22.40;75.40
56046;DHT22;41913;51.030;3.706;2023-06-05T06:35:01;22.40;75.60
56046;DHT22;41913;51.030;3.706;2023-06-05T06:37:27;22.20;75.10
56046;DHT22;41913;51.030;3.706;2023-06-05T06:39:53;22.10;75.00
56046;DHT22;41913;51.030;3.706;2023-06-05T06:42:19;22.00;75.20
56046;DHT22;41913;51.030;3.706;2023-06-05T06:44:45;21.80;75.30
56046;DHT22;41913;51.030;3.706;2023-06-05T06:47:10;21.70;75.30
56046;DHT22;41913;51.030;3.706;2023-06-05T06:49:37;21.60;75.60
56046;DHT22;41913;51.030;3.706;2023-06-05T06:52:03;21.60;75.80
56046;DHT22;41913;51.030;3.706;2023-06-05T06:54:29;21.50;76.00
56046;DHT22;41913;51.030;3.706;2023-06-05T06:56:55;21.40;76.30
56046;DHT22;41913;51.030;3.706;2023-06-05T06:59:22;21.40;76.30
56046;DHT22;41913;51.030;3.706;2023-06-05T07:02:14;21.30;76.30
56046;DHT22;41913;51.030;3.706;2023-06-05T07:04:42;21.30;76.30
56046;DHT22;41913;51.030;3.706;2023-06-05T07:07:14;21.20;76.60
56046;DHT22;41913;51.030;3.706;2023-06-05T07:09:41;21.10;76.80
56046;DHT22;41913;51.030;3.706;2023-06-05T07:12:12;21.10;76.70
56046;DHT22;41913;51.030;3.706;2023-06-05T07:14:39;21.10;76.90
56046;DHT22;41913;51.030;3.706;2023-06-05T07:17:05;21.10;77.00
56046;DHT22;41913;51.030;3.706;2023-06-05T07:19:32;21.10;77.10
56046;DHT22;41913;51.030;3.706;2023-06-05T07:21:59;21.00;77.10
56046;DHT22;41913;51.030;3.706;2023-06-05T07:24:26;21.00;77.30
56046;DHT22;41913;51.030;3.706;2023-06-05T07:26:53;21.00;77.50
56046;DHT22;41913;51.030;3.706;2023-06-05T07:29:21;21.00;77.50
56046;DHT22;41913;51.030;3.706;2023-06-05T07:31:49;21.00;77.40
56046;DHT22;41913;51.030;3.706;2023-06-05T07:34:18;20.90;77.40
56046;DHT22;41913;51.030;3.706;2023-06-05T07:36:45;20.90;77.60
56046;DHT22;41913;51.030;3.706;2023-06-05T07:39:11;20.90;77.60
56046;DHT22;41913;51.030;3.706;2023-06-05T07:41:38;21.00;77.70
56046;DHT22;41913;51.030;3.706;2023-06-05T07:44:07;20.90;77.70
56046;DHT22;41913;51.030;3.706;2023-06-05T07:46:33;20.90;77.80
56046;DHT22;41913;51.030;3.706;2023-06-05T07:48:58;20.90;77.80
56046;DHT22;41913;51.030;3.706;2023-06-05T07:51:24;21.00;77.80
56046;DHT22;41913;51.030;3.706;2023-06-05T07:53:50;20.90;77.80
56046;DHT22;41913;51.030;3.706;2023-06-05T07:56:16;21.00;77.90
56046;DHT22;41913;51.030;3.706;2023-06-05T07:58:42;21.00;77.90
56046;DHT22;41913;51.030;3.706;2023-06-05T08:01:08;21.00;78.00
56046;DHT22;41913;51.030;3.706;2023-06-05T08:03:34;21.00;77.80
56046;DHT22;41913;51.030;3.706;2023-06-05T08:05:59;21.00;78.00
56046;DHT22;41913;51.030;3.706;2023-06-05T08:08:27;21.00;77.80
56046;DHT22;41913;51.030;3.706;2023-06-05T08:10:53;21.00;77.90
56046;DHT22;41913;51.030;3.706;2023-06-05T08:13:18;21.00;78.20
56046;DHT22;41913;51.030;3.706;2023-06-05T08:15:44;21.00;78.30
56046;DHT22;41913;51.030;3.706;2023-06-05T08:18:10;21.00;78.00
56046;DHT22;41913;51.030;3.706;2023-06-05T08:20:36;21.00;78.00
56046;DHT22;41913;51.030;3.706;2023-06-05T08:23:01;21.00;77.90
56046;DHT22;41913;51.030;3.706;2023-06-05T08:25:27;21.00;78.00
56046;DHT22;41913;51.030;3.706;2023-06-05T08:27:53;21.00;77.80
56046;DHT22;41913;51.030;3.706;2023-06-05T08:30:19;21.00;78.10
56046;DHT22;41913;51.030;3.706;2023-06-05T08:32:45;21.00;78.10
56046;DHT22;41913;51.030;3.706;2023-06-05T08:35:11;21.10;78.10
56046;DHT22;41913;51.030;3.706;2023-06-05T08:37:38;21.00;78.10
56046;DHT22;41913;51.030;3.706;2023-06-05T08:40:04;21.10;78.10
56046;DHT22;41913;51.030;3.706;2023-06-05T08:42:37;21.10;77.90
56046;DHT22;41913;51.030;3.706;2023-06-05T08:45:09;21.10;78.10
56046;DHT22;41913;51.030;3.706;2023-06-05T08:47:38;21.10;78.20
56046;DHT22;41913;51.030;3.706;2023-06-05T08:50:07;21.10;78.40
56046;DHT22;41913;51.030;3.706;2023-06-05T08:52:34;21.10;78.40
56046;DHT22;41913;51.030;3.706;2023-06-05T08:55:06;21.10;78.40
56046;DHT22;41913;51.030;3.706;2023-06-05T08:57:38;21.10;78.70
56046;DHT22;41913;51.030;3.706;2023-06-05T09:00:06;21.10;78.70
56046;DHT22;41913;51.030;3.706;2023-06-05T09:02:33;21.20;78.60
56046;DHT22;41913;51.030;3.706;2023-06-05T09:04:59;21.20;78.50
56046;DHT22;41913;51.030;3.706;2023-06-05T09:07:32;21.20;78.80
56046;DHT22;41913;51.030;3.706;2023-06-05T09:09:58;21.30;78.80
56046;DHT22;41913;51.030;3.706;2023-06-05T09:12:24;21.40;78.90
56046;DHT22;41913;51.030;3.706;2023-06-05T09:14:52;21.40;78.90
56046;DHT22;41913;51.030;3.706;2023-06-05T09:17:18;21.50;78.90
56046;DHT22;41913;51.030;3.706;2023-06-05T09:19:46;21.50;78.70
56046;DHT22;41913;51.030;3.706;2023-06-05T09:22:13;21.60;78.80
56046;DHT22;41913;51.030;3.706;2023-06-05T09:24:40;21.60;78.90
56046;DHT22;41913;51.030;3.706;2023-06-05T09:27:16;21.60;79.30
56046;DHT22;41913;51.030;3.706;2023-06-05T09:29:42;21.70;78.70
56046;DHT22;41913;51.030;3.706;2023-06-05T09:32:19;21.70;78.70
56046;DHT22;41913;51.030;3.706;2023-06-05T09:34:55;21.70;78.80
56046;DHT22;41913;51.030;3.706;2023-06-05T09:37:33;21.70;78.70
56046;DHT22;41913;51.030;3.706;2023-06-05T09:40:01;21.80;78.70
56046;DHT22;41913;51.030;3.706;2023-06-05T09:42:33;21.80;78.60
56046;DHT22;41913;51.030;3.706;2023-06-05T09:45:00;21.80;78.70
56046;DHT22;41913;51.030;3.706;2023-06-05T09:47:26;21.90;78.70
56046;DHT22;41913;51.030;3.706;2023-06-05T09:49:52;21.80;78.70
56046;DHT22;41913;51.030;3.706;2023-06-05T09:52:17;21.90;78.70
56046;DHT22;41913;51.030;3.706;2023-06-05T09:54:44;21.90;78.80
56046;DHT22;41913;51.030;3.706;2023-06-05T09:57:11;21.90;78.70
56046;DHT22;41913;51.030;3.706;2023-06-05T09:59:52;21.90;79.20
56046;DHT22;41913;51.030;3.706;2023-06-05T10:02:23;21.90;78.60
56046;DHT22;41913;51.030;3.706;2023-06-05T10:04:57;21.90;78.90
56046;DHT22;41913;51.030;3.706;2023-06-05T10:07:23;21.90;78.60
56046;DHT22;41913;51.030;3.706;2023-06-05T10:09:50;21.90;78.80
56046;DHT22;41913;51.030;3.706;2023-06-05T10:12:16;21.90;78.60
56046;DHT22;41913;51.030;3.706;2023-06-05T10:14:43;21.90;78.90
56046;DHT22;41913;51.030;3.706;2023-06-05T10:17:13;22.00;78.80
56046;DHT22;41913;51.030;3.706;2023-06-05T10:19:45;22.00;78.70
56046;DHT22;41913;51.030;3.706;2023-06-05T10:22:12;22.00;79.00
56046;DHT22;41913;51.030;3.706;2023-06-05T10:24:43;22.00;78.70
56046;DHT22;41913;51.030;3.706;2023-06-05T10:27:12;22.00;78.80
56046;DHT22;41913;51.030;3.706;2023-06-05T10:40:33;22.10;78.60
56046;DHT22;41913;51.030;3.706;2023-06-05T10:43:28;22.10;78.70
56046;DHT22;41913;51.030;3.706;2023-06-05T10:45:55;22.10;78.80
56046;DHT22;41913;51.030;3.706;2023-06-05T10:51:44;22.10;78.90
56046;DHT22;41913;51.030;3.706;2023-06-05T10:59:18;22.10;78.90
56046;DHT22;41913;51.030;3.706;2023-06-05T11:07:28;22.20;78.80
56046;DHT22;41913;51.030;3.706;2023-06-05T11:15:01;22.20;78.40
56046;DHT22;41913;51.030;3.706;2023-06-05T11:17:31;22.20;78.50
56046;DHT22;41913;51.030;3.706;2023-06-05T11:19:58;22.20;78.60
56046;DHT22;41913;51.030;3.706;2023-06-05T11:22:24;22.20;78.50
56046;DHT22;41913;51.030;3.706;2023-06-05T11:27:45;22.20;78.70
56046;DHT22;41913;51.030;3.706;2023-06-05T11:30:15;22.20;78.40
56046;DHT22;41913;51.030;3.706;2023-06-05T11:32:42;22.20;78.30
56046;DHT22;41913;51.030;3.706;2023-06-05T11:35:10;22.20;78.20
56046;DHT22;41913;51.030;3.706;2023-06-05T11:37:36;22.20;78.20
56046;DHT22;41913;51.030;3.706;2023-06-05T11:40:06;22.20;78.40
56046;DHT22;41913;51.030;3.706;2023-06-05T11:42:36;22.20;78.70
56046;DHT22;41913;51.030;3.706;2023-06-05T11:45:13;22.20;78.40
56046;DHT22;41913;51.030;3.706;2023-06-05T11:47:40;22.20;78.50
56046;DHT22;41913;51.030;3.706;2023-06-05T11:50:11;22.20;78.30
56046;DHT22;41913;51.030;3.706;2023-06-05T11:52:37;22.20;78.60
56046;DHT22;41913;51.030;3.706;2023-06-05T11:55:20;22.30;78.40
56046;DHT22;41913;51.030;3.706;2023-06-05T11:57:49;22.20;78.10
56046;DHT22;41913;51.030;3.706;2023-06-05T12:00:16;22.30;78.10
56046;DHT22;41913;51.030;3.706;2023-06-05T12:02:48;22.20;78.80
56046;DHT22;41913;51.030;3.706;2023-06-05T12:05:14;22.20;78.40
56046;DHT22;41913;51.030;3.706;2023-06-05T12:07:40;22.30;78.30
56046;DHT22;41913;51.030;3.706;2023-06-05T12:10:08;22.30;78.40
56046;DHT22;41913;51.030;3.706;2023-06-05T12:12:52;22.30;78.20
56046;DHT22;41913;51.030;3.706;2023-06-05T12:15:20;22.30;78.60
56046;DHT22;41913;51.030;3.706;2023-06-05T12:17:50;22.30;78.90
56046;DHT22;41913;51.030;3.706;2023-06-05T12:20:17;22.30;78.50
56046;DHT22;41913;51.030;3.706;2023-06-05T12:22:43;22.30;79.00
56046;DHT22;41913;51.030;3.706;2023-06-05T12:25:18;22.30;78.60
56046;DHT22;41913;51.030;3.706;2023-06-05T12:27:44;22.30;78.60
56046;DHT22;41913;51.030;3.706;2023-06-05T12:30:15;22.30;80.00
56046;DHT22;41913;51.030;3.706;2023-06-05T12:32:42;22.30;79.00
56046;DHT22;41913;51.030;3.706;2023-06-05T12:35:22;22.30;78.30
56046;DHT22;41913;51.030;3.706;2023-06-05T12:37:51;22.30;78.10
56046;DHT22;41913;51.030;3.706;2023-06-05T12:40:20;22.30;78.30
56046;DHT22;41913;51.030;3.706;2023-06-05T12:42:49;22.40;78.10
56046;DHT22;41913;51.030;3.706;2023-06-05T12:45:15;22.40;78.00
56046;DHT22;41913;51.030;3.706;2023-06-05T12:47:43;22.30;77.90
56046;DHT22;41913;51.030;3.706;2023-06-05T12:50:10;22.30;77.90
56046;DHT22;41913;51.030;3.706;2023-06-05T12:52:40;22.40;78.00
56046;DHT22;41913;51.030;3.706;2023-06-05T12:55:09;22.40;78.00
56046;DHT22;41913;51.030;3.706;2023-06-05T12:57:34;22.40;78.10
56046;DHT22;41913;51.030;3.706;2023-06-05T13:00:03;22.40;78.30
56046;DHT22;41913;51.030;3.706;2023-06-05T13:02:41;22.40;78.00
56046;DHT22;41913;51.030;3.706;2023-06-05T13:05:10;22.40;78.50
56046;DHT22;41913;51.030;3.706;2023-06-05T13:07:37;22.40;78.20
56046;DHT22;41913;51.030;3.706;2023-06-05T13:10:05;22.40;78.00
56046;DHT22;41913;51.030;3.706;2023-06-05T13:12:31;22.40;78.00
56046;DHT22;41913;51.030;3.706;2023-06-05T13:14:57;22.40;77.90
56046;DHT22;41913;51.030;3.706;2023-06-05T13:17:23;22.40;77.80
56046;DHT22;41913;51.030;3.706;2023-06-05T13:19:52;22.40;77.70
56046;DHT22;41913;51.030;3.706;2023-06-05T13:22:19;22.40;77.90
56046;DHT22;41913;51.030;3.706;2023-06-05T13:24:45;22.40;77.90
56046;DHT22;41913;51.030;3.706;2023-06-05T13:27:11;22.40;78.10
56046;DHT22;41913;51.030;3.706;2023-06-05T13:29:37;22.40;78.00
56046;DHT22;41913;51.030;3.706;2023-06-05T13:32:02;22.40;78.00
56046;DHT22;41913;51.030;3.706;2023-06-05T13:34:28;22.50;78.20
56046;DHT22;41913;51.030;3.706;2023-06-05T13:36:54;22.50;78.10
56046;DHT22;41913;51.030;3.706;2023-06-05T13:39:19;22.50;78.30
56046;DHT22;41913;51.030;3.706;2023-06-05T13:41:45;22.50;78.30
56046;DHT22;41913;51.030;3.706;2023-06-05T13:44:11;22.50;78.00
56046;DHT22;41913;51.030;3.706;2023-06-05T13:46:37;22.50;78.00
56046;DHT22;41913;51.030;3.706;2023-06-05T13:49:02;22.50;78.00
56046;DHT22;41913;51.030;3.706;2023-06-05T13:51:28;22.50;77.90
56046;DHT22;41913;51.030;3.706;2023-06-05T13:53:54;22.50;77.90
56046;DHT22;41913;51.030;3.706;2023-06-05T13:56:23;22.50;77.90
56046;DHT22;41913;51.030;3.706;2023-06-05T13:58:48;22.50;77.80
56046;DHT22;41913;51.030;3.706;2023-06-05T14:01:14;22.50;77.80
56046;DHT22;41913;51.030;3.706;2023-06-05T14:03:40;22.50;77.70
56046;DHT22;41913;51.030;3.706;2023-06-05T14:06:05;22.50;77.90
56046;DHT22;41913;51.030;3.706;2023-06-05T14:08:31;22.50;77.90
56046;DHT22;41913;51.030;3.706;2023-06-05T14:10:58;22.50;77.90
56046;DHT22;41913;51.030;3.706;2023-06-05T14:13:24;22.50;78.00
56046;DHT22;41913;51.030;3.706;2023-06-05T14:15:50;22.50;78.20
56046;DHT22;41913;51.030;3.706;2023-06-05T14:18:16;22.60;78.20
56046;DHT22;41913;51.030;3.706;2023-06-05T14:20:42;22.60;78.10
56046;DHT22;41913;51.030;3.706;2023-06-05T14:23:08;22.50;78.00
56046;DHT22;41913;51.030;3.706;2023-06-05T14:25:34;22.50;77.90
56046;DHT22;41913;51.030;3.706;2023-06-05T14:27:59;22.60;77.90
56046;DHT22;41913;51.030;3.706;2023-06-05T14:30:25;22.60;77.90
56046;DHT22;41913;51.030;3.706;2023-06-05T14:32:54;22.60;78.00
56046;DHT22;41913;51.030;3.706;2023-06-05T14:35:21;22.60;78.10
56046;DHT22;41913;51.030;3.706;2023-06-05T14:37:47;22.60;78.10
56046;DHT22;41913;51.030;3.706;2023-06-05T14:40:13;22.60;78.20
56046;DHT22;41913;51.030;3.706;2023-06-05T14:42:39;22.60;78.10
56046;DHT22;41913;51.030;3.706;2023-06-05T14:45:05;22.60;78.50
56046;DHT22;41913;51.030;3.706;2023-06-05T14:47:31;22.60;79.00
56046;DHT22;41913;51.030;3.706;2023-06-05T14:49:57;22.60;78.50
56046;DHT22;41913;51.030;3.706;2023-06-05T14:52:23;22.60;78.30
56046;DHT22;41913;51.030;3.706;2023-06-05T14:54:49;22.60;78.30
56046;DHT22;41913;51.030;3.706;2023-06-05T14:57:14;22.60;78.20
56046;DHT22;41913;51.030;3.706;2023-06-05T14:59:40;22.60;78.50
56046;DHT22;41913;51.030;3.706;2023-06-05T15:02:06;22.60;78.50
56046;DHT22;41913;51.030;3.706;2023-06-05T15:04:32;22.60;78.70
56046;DHT22;41913;51.030;3.706;2023-06-05T15:06:59;22.60;78.20
56046;DHT22;41913;51.030;3.706;2023-06-05T15:09:25;22.70;78.10
56046;DHT22;41913;51.030;3.706;2023-06-05T15:11:52;22.60;78.30
56046;DHT22;41913;51.030;3.706;2023-06-05T15:14:21;22.70;78.50
56046;DHT22;41913;51.030;3.706;2023-06-05T15:16:46;22.60;78.80
56046;DHT22;41913;51.030;3.706;2023-06-05T15:19:13;22.70;79.10
56046;DHT22;41913;51.030;3.706;2023-06-05T15:21:40;22.60;79.50
56046;DHT22;41913;51.030;3.706;2023-06-05T15:24:06;22.70;78.90
56046;DHT22;41913;51.030;3.706;2023-06-05T15:26:32;22.60;79.00
56046;DHT22;41913;51.030;3.706;2023-06-05T15:28:58;22.70;79.30
56046;DHT22;41913;51.030;3.706;2023-06-05T15:31:24;22.70;78.80
56046;DHT22;41913;51.030;3.706;2023-06-05T15:33:51;22.70;78.60
56046;DHT22;41913;51.030;3.706;2023-06-05T15:36:17;22.70;79.10
56046;DHT22;41913;51.030;3.706;2023-06-05T15:38:42;22.70;78.70
56046;DHT22;41913;51.030;3.706;2023-06-05T15:41:09;22.70;79.10
56046;DHT22;41913;51.030;3.706;2023-06-05T15:43:35;22.80;79.20
56046;DHT22;41913;51.030;3.706;2023-06-05T15:46:00;22.80;79.10
56046;DHT22;41913;51.030;3.706;2023-06-05T15:48:26;22.80;80.20
56046;DHT22;41913;51.030;3.706;2023-06-05T15:50:53;22.80;79.30
56046;DHT22;41913;51.030;3.706;2023-06-05T15:53:20;22.90;80.90
56046;DHT22;41913;51.030;3.706;2023-06-05T15:55:45;22.90;81.00
56046;DHT22;41913;51.030;3.706;2023-06-05T15:58:11;22.90;81.40
56046;DHT22;41913;51.030;3.706;2023-06-05T16:00:37;22.90;83.10
56046;DHT22;41913;51.030;3.706;2023-06-05T16:03:03;23.00;83.10
56046;DHT22;41913;51.030;3.706;2023-06-05T16:05:29;23.00;82.60
56046;DHT22;41913;51.030;3.706;2023-06-05T16:07:54;23.00;82.60